createdAt,value
2018-08-20T00:02:05.150Z,4.10
2018-08-20T00:04:39.005Z,4.77
2018-08-20T00:07:07.289Z,4.20
2018-08-20T00:09:40.939Z,4.87
2018-08-20T00:12:09.843Z,5.70
2018-08-20T00:14:38.204Z,5.03
2018-08-20T00:17:06.482Z,4.73
2018-08-20T00:19:34.736Z,4.83
2018-08-20T00:22:02.963Z,5.17
2018-08-20T00:24:31.191Z,4.20
2018-08-20T00:27:01.455Z,5.17
2018-08-20T00:29:29.819Z,4.87
2018-08-20T00:31:58.091Z,4.50
2018-08-20T00:34:26.335Z,4.20
2018-08-20T00:36:54.558Z,5.37
2018-08-20T00:39:22.831Z,5.83
2018-08-20T00:41:51.091Z,4.63
2018-08-20T00:44:19.309Z,4.37
2018-08-20T00:46:47.559Z,4.70
2018-08-20T00:49:16.712Z,4.83
2018-08-20T00:51:45.417Z,4.50
2018-08-20T00:54:13.712Z,4.43
2018-08-20T00:56:42.008Z,4.30
2018-08-20T00:59:10.252Z,4.73
2018-08-20T01:01:38.516Z,4.37
2018-08-20T01:04:06.770Z,4.27
2018-08-20T01:06:35.022Z,4.43
2018-08-20T01:09:03.462Z,4.90
2018-08-20T01:11:31.669Z,5.00
2018-08-20T01:13:59.911Z,4.77
2018-08-20T01:16:28.163Z,5.03
2018-08-20T01:18:56.373Z,4.03
2018-08-20T01:21:24.647Z,4.33
2018-08-20T01:23:52.935Z,4.00
2018-08-20T01:26:21.131Z,3.30
2018-08-20T01:28:49.358Z,3.53
2018-08-20T01:31:17.634Z,3.97
2018-08-20T01:33:45.907Z,4.37
2018-08-20T01:36:14.163Z,3.67
2018-08-20T01:38:42.379Z,3.60
2018-08-20T01:41:10.659Z,3.50
2018-08-20T01:43:38.868Z,4.27
2018-08-20T01:46:07.110Z,3.57
2018-08-20T01:48:35.379Z,4.03
2018-08-20T01:51:03.638Z,4.03
2018-08-20T01:53:31.928Z,3.47
2018-08-20T01:56:00.174Z,3.80
2018-08-20T01:58:28.418Z,3.67
2018-08-20T02:00:56.668Z,3.27
2018-08-20T02:03:24.912Z,3.80
2018-08-20T02:05:53.125Z,3.83
2018-08-20T02:08:21.357Z,4.63
2018-08-20T02:10:49.559Z,3.87
2018-08-20T02:13:17.817Z,4.70
2018-08-20T02:15:46.043Z,4.20
2018-08-20T02:18:14.274Z,4.03
2018-08-20T02:20:42.516Z,3.97
2018-08-20T02:23:10.779Z,4.30
2018-08-20T02:25:39.067Z,3.63
2018-08-20T02:28:07.316Z,4.27
2018-08-20T02:30:35.570Z,4.43
2018-08-20T02:33:03.880Z,4.03
2018-08-20T02:35:32.107Z,4.40
2018-08-20T02:38:00.375Z,4.57
2018-08-20T02:40:28.757Z,4.40
2018-08-20T02:42:57.006Z,5.00
2018-08-20T02:45:25.262Z,4.23
2018-08-20T02:47:53.487Z,4.33
2018-08-20T02:50:21.759Z,4.00
2018-08-20T02:52:50.040Z,4.10
2018-08-20T02:55:18.271Z,4.03
2018-08-20T02:57:46.515Z,3.87
2018-08-20T03:00:14.955Z,5.03
2018-08-20T03:02:43.233Z,5.00
2018-08-20T03:05:12.483Z,4.30
2018-08-20T03:07:40.720Z,4.80
2018-08-20T03:10:10.884Z,4.20
2018-08-20T03:12:39.167Z,4.47
2018-08-20T03:15:08.433Z,4.90
2018-08-20T03:17:36.718Z,4.77
2018-08-20T03:20:05.031Z,3.57
2018-08-20T03:22:33.251Z,4.73
2018-08-20T03:25:01.483Z,4.67
2018-08-20T03:27:29.735Z,4.53
2018-08-20T03:29:57.951Z,4.20
2018-08-20T03:32:26.186Z,4.73
2018-08-20T03:34:54.410Z,5.53
2018-08-20T03:37:22.700Z,4.97
2018-08-20T03:39:50.963Z,4.77
2018-08-20T03:42:19.186Z,4.20
2018-08-20T03:44:47.403Z,4.40
2018-08-20T03:47:15.622Z,4.90
2018-08-20T03:49:43.874Z,4.77
2018-08-20T03:52:12.152Z,4.80
2018-08-20T03:54:40.428Z,5.47
2018-08-20T03:57:08.648Z,5.23
2018-08-20T03:59:37.712Z,5.97
2018-08-20T04:02:07.425Z,5.30
2018-08-20T04:04:35.680Z,5.53
2018-08-20T04:07:06.015Z,4.30
2018-08-20T04:09:34.501Z,5.13
2018-08-20T04:12:03.502Z,6.43
2018-08-20T04:14:31.719Z,4.77
2018-08-20T04:17:00.349Z,4.80
2018-08-20T04:19:29.087Z,7.03
2018-08-20T04:21:57.752Z,4.57
2018-08-20T04:24:25.985Z,5.83
2018-08-20T04:26:54.227Z,5.63
2018-08-20T04:29:22.818Z,6.63
2018-08-20T04:31:51.019Z,5.67
2018-08-20T04:34:19.253Z,5.20
2018-08-20T04:36:47.471Z,6.03
2018-08-20T04:39:15.748Z,5.73
2018-08-20T04:41:43.973Z,5.50
2018-08-20T04:44:12.221Z,6.33
2018-08-20T04:46:40.464Z,5.07
2018-08-20T04:49:08.693Z,5.73
2018-08-20T04:51:36.991Z,4.73
2018-08-20T04:54:05.188Z,5.63
2018-08-20T04:56:33.411Z,6.30
2018-08-20T04:59:01.649Z,5.00
2018-08-20T05:01:29.850Z,5.67
2018-08-20T05:03:58.161Z,5.33
2018-08-20T05:06:26.392Z,5.87
2018-08-20T05:08:54.720Z,5.90
2018-08-20T05:11:22.957Z,6.50
2018-08-20T05:13:52.211Z,6.13
2018-08-20T05:16:20.444Z,6.30
2018-08-20T05:18:48.759Z,6.17
2018-08-20T05:21:16.923Z,5.67
2018-08-20T05:23:45.183Z,7.30
2018-08-20T05:26:13.432Z,5.60
2018-08-20T05:28:42.121Z,5.67
2018-08-20T05:31:10.331Z,6.20
2018-08-20T05:33:38.549Z,6.43
2018-08-20T05:36:07.006Z,5.63
2018-08-20T05:38:35.318Z,5.73
2018-08-20T05:41:03.579Z,5.57
2018-08-20T05:43:31.816Z,5.37
2018-08-20T05:46:00.035Z,4.70
2018-08-20T05:48:28.273Z,5.37
2018-08-20T05:50:56.540Z,5.80
2018-08-20T05:53:24.820Z,5.53
2018-08-20T05:55:53.034Z,5.33
2018-08-20T05:58:21.559Z,5.67
2018-08-20T06:00:49.797Z,5.20
2018-08-20T06:03:18.148Z,5.97
2018-08-20T06:05:46.393Z,5.53
2018-08-20T06:08:14.655Z,5.87
2018-08-20T06:10:42.887Z,5.73
2018-08-20T06:13:11.115Z,5.20
2018-08-20T06:15:39.409Z,6.17
2018-08-20T06:18:07.641Z,5.73
2018-08-20T06:20:35.891Z,5.33
2018-08-20T06:23:04.116Z,5.07
2018-08-20T06:25:32.367Z,5.90
2018-08-20T06:28:00.591Z,5.83
2018-08-20T06:30:28.848Z,5.63
2018-08-20T06:32:57.213Z,6.33
2018-08-20T06:35:25.457Z,5.70
2018-08-20T06:37:53.773Z,6.03
2018-08-20T06:40:22.040Z,5.60
2018-08-20T06:42:50.254Z,5.90
2018-08-20T06:45:18.503Z,5.63
2018-08-20T06:47:47.243Z,5.43
2018-08-20T06:50:15.919Z,6.03
2018-08-20T06:52:44.927Z,5.30
2018-08-20T06:55:14.375Z,5.67
2018-08-20T06:57:43.660Z,5.33
2018-08-20T07:00:12.319Z,5.77
2018-08-20T07:02:41.419Z,4.90
2018-08-20T07:05:10.315Z,5.03
2018-08-20T07:07:41.128Z,5.97
2018-08-20T07:10:12.432Z,5.00
2018-08-20T07:12:40.856Z,5.10
2018-08-20T07:15:10.993Z,4.47
2018-08-20T07:17:39.383Z,4.33
2018-08-20T07:20:09.537Z,4.33
2018-08-20T07:22:37.797Z,3.87
2018-08-20T07:25:06.820Z,4.63
2018-08-20T07:27:35.995Z,5.40
2018-08-20T07:30:05.922Z,4.70
2018-08-20T07:32:34.207Z,3.83
2018-08-20T07:35:03.312Z,3.33
2018-08-20T07:37:31.762Z,3.10
2018-08-20T07:39:59.992Z,1.83
2018-08-20T07:42:29.345Z,2.10
2018-08-20T07:44:57.469Z,1.73
2018-08-20T07:47:26.195Z,1.73
2018-08-20T07:49:54.427Z,1.80
2018-08-20T07:52:22.635Z,2.13
2018-08-20T07:54:50.852Z,1.43
2018-08-20T07:57:19.112Z,1.80
2018-08-20T07:59:47.477Z,2.30
2018-08-20T08:02:15.743Z,1.47
2018-08-20T08:04:43.999Z,1.83
2018-08-20T08:07:12.219Z,1.77
2018-08-20T08:09:40.455Z,1.60
2018-08-20T08:12:08.716Z,1.87
2018-08-20T08:14:36.963Z,2.17
2018-08-20T08:17:05.231Z,1.73
2018-08-20T08:19:33.452Z,2.20
2018-08-20T08:22:01.709Z,1.90
2018-08-20T08:24:29.967Z,2.67
2018-08-20T08:26:58.196Z,1.77
2018-08-20T08:29:26.400Z,1.80
2018-08-20T08:31:55.360Z,1.87
2018-08-20T08:34:23.627Z,2.00
2018-08-20T08:36:51.945Z,2.10
2018-08-20T08:39:20.171Z,1.80
2018-08-20T08:41:48.404Z,1.60
2018-08-20T08:44:16.631Z,1.80
2018-08-20T08:46:44.863Z,1.87
2018-08-20T08:49:13.179Z,2.83
2018-08-20T08:51:41.445Z,1.80
2018-08-20T08:54:09.672Z,1.53
2018-08-20T08:56:37.963Z,1.70
2018-08-20T08:59:06.171Z,1.70
2018-08-20T09:01:34.404Z,2.07
2018-08-20T09:04:03.582Z,2.17
2018-08-20T09:06:32.560Z,2.53
2018-08-20T09:09:01.875Z,1.97
2018-08-20T09:11:30.362Z,2.03
2018-08-20T09:13:58.595Z,1.80
2018-08-20T09:16:26.827Z,1.77
2018-08-20T09:18:55.047Z,1.93
2018-08-20T09:21:23.316Z,1.80
2018-08-20T09:23:51.525Z,2.40
2018-08-20T09:26:19.726Z,1.73
2018-08-20T09:28:47.958Z,1.53
2018-08-20T09:31:16.170Z,1.20
2018-08-20T09:33:44.413Z,1.67
2018-08-20T09:36:12.628Z,1.13
2018-08-20T09:38:40.842Z,1.10
2018-08-20T09:41:09.055Z,1.00
2018-08-20T09:43:37.291Z,0.80
2018-08-20T09:46:05.484Z,0.90
2018-08-20T09:48:33.779Z,1.40
2018-08-20T09:51:01.976Z,1.03
2018-08-20T09:53:30.302Z,0.83
2018-08-20T09:55:58.406Z,0.93
2018-08-20T09:58:26.632Z,1.20
2018-08-20T10:00:54.815Z,0.83
2018-08-20T10:03:23.087Z,1.10
2018-08-20T10:05:51.355Z,0.80
2018-08-20T10:08:19.598Z,0.70
2018-08-20T10:10:47.806Z,0.70
2018-08-20T10:13:16.039Z,0.60
2018-08-20T10:15:44.358Z,0.70
2018-08-20T10:18:12.815Z,1.63
2018-08-20T10:20:41.099Z,0.80
2018-08-20T10:23:09.333Z,0.80
2018-08-20T10:25:37.625Z,0.60
2018-08-20T10:28:05.925Z,0.90
2018-08-20T10:30:34.133Z,0.73
2018-08-20T10:33:02.350Z,0.93
2018-08-20T10:35:30.556Z,1.00
2018-08-20T10:38:01.756Z,0.67
2018-08-20T10:40:30.116Z,0.53
2018-08-20T10:42:59.942Z,0.47
2018-08-20T10:45:35.102Z,0.50
2018-08-20T10:48:03.359Z,0.40
2018-08-20T10:50:31.748Z,0.53
2018-08-20T10:53:00.387Z,0.60
2018-08-20T10:55:29.763Z,0.40
2018-08-20T10:57:58.013Z,0.50
2018-08-20T11:00:26.199Z,0.63
2018-08-20T11:02:54.796Z,0.47
2018-08-20T11:05:23.007Z,0.30
2018-08-20T11:07:51.222Z,0.40
2018-08-20T11:10:19.422Z,0.50
2018-08-20T11:12:47.656Z,0.80
2018-08-20T11:15:15.904Z,0.43
2018-08-20T11:17:44.140Z,0.70
2018-08-20T11:20:14.356Z,0.60
2018-08-20T11:22:42.587Z,0.33
2018-08-20T11:25:11.719Z,0.20
2018-08-20T11:27:40.175Z,0.50
2018-08-20T11:30:09.949Z,0.20
2018-08-20T11:32:38.238Z,0.63
2018-08-20T11:35:07.084Z,0.40
2018-08-20T11:37:35.312Z,0.23
2018-08-20T11:40:03.537Z,0.40
2018-08-20T11:42:32.374Z,0.60
2018-08-20T11:45:01.192Z,0.40
2018-08-20T11:47:29.499Z,0.50
2018-08-20T11:49:57.726Z,0.50
2018-08-20T11:52:25.960Z,1.77
2018-08-20T11:54:54.324Z,1.37
2018-08-20T11:57:23.236Z,0.80
2018-08-20T11:59:51.490Z,1.00
2018-08-20T12:02:20.090Z,1.27
2018-08-20T12:04:49.264Z,0.70
2018-08-20T12:07:17.780Z,0.63
2018-08-20T12:09:46.351Z,0.50
2018-08-20T12:12:14.649Z,0.50
2018-08-20T12:14:43.619Z,0.53
2018-08-20T12:17:13.301Z,0.50
2018-08-20T12:19:41.508Z,0.70
2018-08-20T12:22:10.295Z,2.03
2018-08-20T12:24:39.029Z,1.60
2018-08-20T12:27:07.375Z,1.50
2018-08-20T12:29:35.655Z,1.40
2018-08-20T12:32:03.891Z,1.07
2018-08-20T12:34:32.129Z,0.77
2018-08-20T12:37:00.332Z,0.70
2018-08-20T12:39:28.552Z,0.73
2018-08-20T12:41:56.782Z,0.73
2018-08-20T12:44:24.995Z,0.50
2018-08-20T12:46:53.213Z,0.80
2018-08-20T12:49:21.403Z,0.47
2018-08-20T12:51:49.608Z,0.70
2018-08-20T12:54:17.843Z,0.77
2018-08-20T12:56:46.096Z,0.57
2018-08-20T12:59:14.365Z,0.97
2018-08-20T13:01:42.601Z,0.77
2018-08-20T13:04:10.848Z,0.60
2018-08-20T13:06:39.065Z,0.80
2018-08-20T13:09:07.576Z,0.73
2018-08-20T13:11:35.932Z,0.40
2018-08-20T13:14:04.428Z,0.90
2018-08-20T13:16:32.706Z,0.80
2018-08-20T13:19:00.927Z,1.07
2018-08-20T13:21:29.191Z,1.33
2018-08-20T13:23:57.432Z,1.47
2018-08-20T13:26:25.667Z,1.50
2018-08-20T13:28:54.124Z,1.40
2018-08-20T13:31:22.384Z,2.07
2018-08-20T13:33:50.730Z,0.87
2018-08-20T13:36:18.983Z,1.00
2018-08-20T13:38:47.239Z,0.83
2018-08-20T13:41:15.507Z,0.80
2018-08-20T13:43:44.324Z,1.10
2018-08-20T13:46:14.736Z,0.87
2018-08-20T13:48:42.984Z,0.80
2018-08-20T13:51:11.202Z,1.77
2018-08-20T13:53:39.742Z,1.80
2018-08-20T13:56:10.280Z,1.40
2018-08-20T13:58:38.835Z,1.70
2018-08-20T14:01:07.072Z,1.33
2018-08-20T14:03:35.310Z,0.90
2018-08-20T14:06:03.729Z,1.07
2018-08-20T14:08:33.013Z,1.27
2018-08-20T14:11:01.814Z,1.83
2018-08-20T14:13:30.833Z,1.77
2018-08-20T14:16:00.158Z,1.03
2018-08-20T14:18:29.493Z,0.90
2018-08-20T14:21:09.277Z,1.03
2018-08-20T14:23:37.964Z,1.10
2018-08-20T14:26:06.907Z,1.93
2018-08-20T14:28:35.821Z,1.13
2018-08-20T14:31:04.151Z,0.80
2018-08-20T14:33:33.852Z,0.90
2018-08-20T14:36:02.173Z,0.97
2018-08-20T14:38:30.463Z,1.00
2018-08-20T14:40:58.710Z,0.80
2018-08-20T14:43:26.947Z,0.87
2018-08-20T14:46:00.725Z,1.20
2018-08-20T14:48:28.968Z,0.80
2018-08-20T14:50:57.153Z,0.80
2018-08-20T14:53:25.416Z,1.00
2018-08-20T14:55:53.667Z,1.23
2018-08-20T14:58:22.149Z,0.67
2018-08-20T15:00:51.040Z,0.67
2018-08-20T15:03:19.527Z,1.53
2018-08-20T15:05:47.780Z,1.80
2018-08-20T15:08:15.994Z,2.00
2018-08-20T15:10:44.269Z,1.50
2018-08-20T15:13:12.626Z,0.97
2018-08-20T15:15:41.045Z,0.83
2018-08-20T15:18:09.294Z,1.47
2018-08-20T15:20:37.521Z,0.90
2018-08-20T15:23:06.434Z,0.80
2018-08-20T15:25:34.768Z,0.90
2018-08-20T15:28:03.025Z,1.17
2018-08-20T15:30:31.236Z,1.03
2018-08-20T15:32:59.516Z,1.53
2018-08-20T15:35:27.786Z,1.17
2018-08-20T15:37:55.986Z,1.20
2018-08-20T15:40:24.180Z,0.70
2018-08-20T15:42:52.391Z,1.07
2018-08-20T15:45:20.635Z,1.23
2018-08-20T15:47:48.892Z,1.00
2018-08-20T15:50:17.110Z,1.07
2018-08-20T15:52:45.355Z,0.70
2018-08-20T15:55:13.581Z,0.87
2018-08-20T15:57:41.803Z,1.70
2018-08-20T16:00:11.611Z,1.30
2018-08-20T16:02:39.875Z,1.67
2018-08-20T16:05:08.114Z,1.30
2018-08-20T16:07:36.386Z,1.17
2018-08-20T16:10:06.055Z,1.37
2018-08-20T16:12:34.313Z,1.60
2018-08-20T16:15:02.531Z,1.40
2018-08-20T16:17:30.762Z,1.50
2018-08-20T16:19:59.003Z,1.03
2018-08-20T16:22:27.227Z,1.20
2018-08-20T16:24:55.493Z,1.07
2018-08-20T16:27:23.771Z,2.30
2018-08-20T16:29:52.143Z,1.77
2018-08-20T16:32:20.461Z,1.80
2018-08-20T16:34:48.701Z,2.37
2018-08-20T16:37:17.021Z,2.00
2018-08-20T16:39:45.346Z,1.40
2018-08-20T16:42:13.566Z,0.80
2018-08-20T16:44:41.804Z,0.97
2018-08-20T16:47:10.045Z,2.63
2018-08-20T16:49:38.294Z,5.13
2018-08-20T16:52:06.657Z,1.60
2018-08-20T16:54:34.875Z,1.70
2018-08-20T16:57:03.251Z,0.80
2018-08-20T16:59:33.301Z,0.80
2018-08-20T17:02:01.612Z,0.47
2018-08-20T17:04:32.420Z,0.90
2018-08-20T17:07:01.687Z,0.50
2018-08-20T17:09:30.002Z,0.60
2018-08-20T17:11:58.548Z,0.63
2018-08-20T17:14:26.750Z,0.93
2018-08-20T17:16:55.116Z,0.33
2018-08-20T17:19:25.103Z,1.33
2018-08-20T17:21:53.440Z,0.90
2018-08-20T17:24:40.818Z,1.10
2018-08-20T17:27:10.912Z,0.80
2018-08-20T17:29:39.253Z,0.57
2018-08-20T17:32:08.518Z,1.03
2018-08-20T17:34:39.763Z,1.50
2018-08-20T17:37:08.047Z,1.60
2018-08-20T17:39:50.588Z,0.90
2018-08-20T17:42:18.919Z,1.10
2018-08-20T17:44:47.204Z,1.00
2018-08-20T17:47:19.725Z,0.83
2018-08-20T17:49:48.027Z,1.10
2018-08-20T17:52:16.268Z,1.03
2018-08-20T17:54:44.505Z,1.40
2018-08-20T17:57:12.946Z,1.10
2018-08-20T17:59:41.259Z,0.63
2018-08-20T18:02:13.809Z,1.27
2018-08-20T18:04:42.159Z,1.80
2018-08-20T18:07:10.344Z,1.47
2018-08-20T18:09:38.645Z,0.77
2018-08-20T18:12:06.879Z,0.60
2018-08-20T18:14:35.214Z,1.23
2018-08-20T18:17:03.522Z,0.70
2018-08-20T18:19:31.901Z,0.93
2018-08-20T18:22:00.257Z,0.83
2018-08-20T18:24:28.608Z,0.93
2018-08-20T18:26:57.500Z,0.63
2018-08-20T18:29:25.792Z,1.10
2018-08-20T18:31:55.731Z,0.70
2018-08-20T18:34:24.230Z,0.60
2018-08-20T18:36:52.595Z,1.17
2018-08-20T18:39:21.231Z,1.10
2018-08-20T18:41:56.960Z,0.87
2018-08-20T18:44:25.223Z,2.93
2018-08-20T18:46:53.496Z,4.20
2018-08-20T18:49:22.636Z,2.33
2018-08-20T18:51:56.948Z,2.70
2018-08-20T18:54:25.906Z,1.57
2018-08-20T18:57:09.839Z,1.83
2018-08-20T18:59:39.060Z,2.30
2018-08-20T19:02:09.441Z,1.50
2018-08-20T19:04:42.015Z,3.77
2018-08-20T19:07:12.416Z,2.37
2018-08-20T19:09:41.926Z,2.23
2018-08-20T19:12:11.058Z,1.33
2018-08-20T19:14:39.319Z,1.40
2018-08-20T19:17:13.092Z,1.30
2018-08-20T19:19:45.608Z,1.37
2018-08-20T19:22:20.236Z,2.70
2018-08-20T19:24:49.593Z,2.97
2018-08-20T19:27:20.436Z,1.33
2018-08-20T19:29:48.801Z,1.10
2018-08-20T19:32:17.007Z,1.20
2018-08-20T19:34:46.722Z,0.97
2018-08-20T19:37:14.984Z,4.70
2018-08-20T19:39:43.767Z,1.17
2018-08-20T19:42:19.766Z,1.00
2018-08-20T19:44:48.082Z,0.90
2018-08-20T19:47:16.349Z,0.80
2018-08-20T19:49:44.601Z,0.93
2018-08-20T19:52:12.847Z,4.97
2018-08-20T19:54:41.091Z,1.77
2018-08-20T19:57:09.707Z,1.03
2018-08-20T19:59:39.115Z,1.10
2018-08-20T20:02:11.610Z,1.63
2018-08-20T20:04:40.449Z,1.77
2018-08-20T20:07:12.312Z,2.33
2018-08-20T20:09:44.519Z,1.50
2018-08-20T20:12:18.917Z,1.20
2018-08-20T20:14:49.788Z,0.90
2018-08-20T20:17:21.118Z,0.90
2018-08-20T20:19:51.215Z,0.87
2018-08-20T20:22:21.803Z,0.87
2018-08-20T20:24:52.943Z,0.70
2018-08-20T20:27:24.357Z,1.30
2018-08-20T20:29:56.022Z,2.30
2018-08-20T20:32:24.339Z,1.80
2018-08-20T20:34:56.944Z,2.13
2018-08-20T20:37:27.496Z,1.43
2018-08-20T20:40:01.062Z,1.30
2018-08-20T20:42:32.903Z,1.10
2018-08-20T20:45:06.173Z,1.20
2018-08-20T20:47:38.375Z,1.07
2018-08-20T20:50:06.762Z,1.23
2018-08-20T20:52:38.766Z,0.80
2018-08-20T20:55:07.884Z,1.10
2018-08-20T20:57:36.262Z,1.27
2018-08-20T21:00:05.410Z,1.07
2018-08-20T21:02:33.657Z,1.30
2018-08-20T21:05:11.582Z,0.97
2018-08-20T21:07:41.063Z,2.87
2018-08-20T21:10:12.671Z,2.03
2018-08-20T21:12:42.988Z,1.60
2018-08-20T21:15:13.724Z,1.67
2018-08-20T21:17:43.755Z,1.03
2018-08-20T21:20:16.056Z,1.13
2018-08-20T21:22:44.407Z,1.40
2018-08-20T21:25:12.679Z,1.30
2018-08-20T21:27:41.029Z,1.80
2018-08-20T21:30:09.418Z,3.03
2018-08-20T21:32:38.624Z,2.90
2018-08-20T21:35:08.335Z,1.83
2018-08-20T21:37:40.072Z,1.77
2018-08-20T21:40:10.948Z,2.07
2018-08-20T21:42:43.171Z,1.57
2018-08-20T21:45:13.900Z,1.33
2018-08-20T21:47:43.144Z,1.37
2018-08-20T21:50:11.413Z,1.00
2018-08-20T21:52:39.637Z,1.27
2018-08-20T21:55:11.147Z,1.03
2018-08-20T21:57:45.086Z,1.17
2018-08-20T22:00:15.290Z,0.90
2018-08-20T22:02:47.962Z,1.00
2018-08-20T22:05:23.857Z,1.60
2018-08-20T22:07:55.906Z,1.77
2018-08-20T22:10:24.878Z,1.10
2018-08-20T22:12:54.009Z,1.63
2018-08-20T22:15:22.295Z,2.27
2018-08-20T22:17:50.572Z,2.37
2018-08-20T22:20:18.806Z,1.40
2018-08-20T22:22:47.175Z,1.80
2018-08-20T22:25:16.832Z,1.73
2018-08-20T22:27:50.549Z,0.90
2018-08-20T22:30:18.801Z,1.40
2018-08-20T22:32:47.106Z,1.60
2018-08-20T22:35:20.611Z,1.70
2018-08-20T22:37:50.899Z,0.90
2018-08-20T22:40:19.803Z,1.60
2018-08-20T22:42:53.662Z,1.23
2018-08-20T22:45:22.213Z,1.90
2018-08-20T22:47:51.043Z,1.10
2018-08-20T22:50:19.283Z,1.10
2018-08-20T22:52:48.984Z,1.03
2018-08-20T22:55:18.417Z,0.97
2018-08-20T22:57:59.142Z,1.40
2018-08-20T23:00:28.285Z,1.37
2018-08-20T23:02:57.185Z,1.13
2018-08-20T23:05:31.623Z,0.97
2018-08-20T23:08:03.564Z,1.00
2018-08-20T23:10:31.780Z,1.57
2018-08-20T23:12:59.983Z,2.37
2018-08-20T23:15:28.413Z,1.80
2018-08-20T23:17:56.701Z,2.00
2018-08-20T23:20:30.270Z,12.93
2018-08-20T23:22:58.564Z,33.17
2018-08-20T23:25:26.803Z,8.03
2018-08-20T23:27:55.023Z,2.97
2018-08-20T23:30:23.259Z,2.00
2018-08-20T23:32:51.475Z,1.13
2018-08-20T23:35:20.664Z,1.13
2018-08-20T23:37:50.910Z,1.20
2018-08-20T23:40:19.192Z,1.80
2018-08-20T23:42:48.156Z,1.33
2018-08-20T23:45:16.433Z,0.90
2018-08-20T23:47:44.925Z,1.07
2018-08-20T23:50:13.678Z,1.20
2018-08-20T23:52:41.924Z,1.07
2018-08-20T23:55:10.185Z,1.03
2018-08-20T23:57:38.695Z,1.17
